createdAt,value
2023-04-22T00:01:21.370Z,7.46
2023-04-22T00:03:55.148Z,7.42
2023-04-22T00:06:25.361Z,7.40
2023-04-22T00:08:53.462Z,7.40
2023-04-22T00:11:21.959Z,7.42
2023-04-22T00:13:55.286Z,7.44
2023-04-22T00:17:05.400Z,7.48
2023-04-22T00:22:56.144Z,7.55
2023-04-22T00:25:24.084Z,7.58
2023-04-22T00:27:55.015Z,7.59
2023-04-22T00:31:06.783Z,7.62
2023-04-22T00:34:01.831Z,7.65
2023-04-22T00:36:29.865Z,7.66
2023-04-22T00:38:57.797Z,7.67
2023-04-22T00:41:26.315Z,7.68
2023-04-22T00:43:58.526Z,7.65
2023-04-22T00:46:26.923Z,7.64
2023-04-22T00:48:55.491Z,7.66
2023-04-22T00:51:23.443Z,7.68
2023-04-22T00:53:57.522Z,7.68
2023-04-22T00:56:33.516Z,7.70
2023-04-22T00:59:23.993Z,7.75
2023-04-22T01:02:02.174Z,7.79
2023-04-22T01:04:30.494Z,7.82
2023-04-22T01:06:58.944Z,7.84
2023-04-22T01:09:27.043Z,7.86
2023-04-22T01:11:56.459Z,7.83
2023-04-22T01:14:24.657Z,7.78
2023-04-22T01:16:56.081Z,7.76
2023-04-22T01:19:36.982Z,7.78
2023-04-22T01:22:33.762Z,7.81
2023-04-22T01:25:03.019Z,7.81
2023-04-22T01:27:43.029Z,7.82
2023-04-22T01:30:11.522Z,7.82
2023-04-22T01:32:40.659Z,7.82
2023-04-22T01:35:09.715Z,7.81
2023-04-22T01:37:39.314Z,7.81
2023-04-22T01:40:11.050Z,7.84
2023-04-22T01:42:39.119Z,7.85
2023-04-22T01:45:07.808Z,7.82
2023-04-22T01:47:56.078Z,7.80
2023-04-22T01:50:24.902Z,7.78
2023-04-22T01:53:04.583Z,7.75
2023-04-22T01:55:36.324Z,7.74
2023-04-22T01:58:04.684Z,7.70
2023-04-22T02:00:32.796Z,7.65
2023-04-22T02:03:00.905Z,7.57
2023-04-22T02:05:39.978Z,7.56
2023-04-22T02:08:07.822Z,7.59
2023-04-22T02:10:35.629Z,7.62
2023-04-22T02:13:03.674Z,7.68
2023-04-22T02:15:34.991Z,7.74
2023-04-22T02:18:04.351Z,7.77
2023-04-22T02:20:32.259Z,7.76
2023-04-22T02:23:00.306Z,7.76
2023-04-22T02:25:31.131Z,7.75
2023-04-22T02:28:04.564Z,7.72
2023-04-22T02:30:34.964Z,7.70
2023-04-22T02:33:03.901Z,7.68
2023-04-22T02:35:35.489Z,7.66
2023-04-22T02:38:03.784Z,7.65
2023-04-22T02:40:31.588Z,7.66
2023-04-22T02:42:59.625Z,7.69
2023-04-22T02:45:27.423Z,7.71
2023-04-22T02:47:55.651Z,7.69
2023-04-22T02:50:23.563Z,7.70
2023-04-22T02:52:56.686Z,7.74
2023-04-22T02:55:24.888Z,7.74
2023-04-22T02:57:56.143Z,7.75
2023-04-22T03:00:23.933Z,7.77
2023-04-22T03:02:52.171Z,7.79
2023-04-22T03:05:20.264Z,7.80
2023-04-22T03:07:52.528Z,7.80
2023-04-22T03:10:20.699Z,7.78
2023-04-22T03:12:49.212Z,7.78
2023-04-22T03:15:20.485Z,7.78
2023-04-22T03:17:50.188Z,7.81
2023-04-22T03:20:18.486Z,7.83
2023-04-22T03:22:46.643Z,7.84
2023-04-22T03:25:14.662Z,7.80
2023-04-22T03:27:44.313Z,7.76
2023-04-22T03:30:12.621Z,7.75
2023-04-22T03:32:40.608Z,7.75
2023-04-22T03:35:10.041Z,7.78
2023-04-22T03:38:03.818Z,7.84
2023-04-22T03:40:31.762Z,7.89
2023-04-22T03:42:59.638Z,7.90
2023-04-22T03:45:27.469Z,7.94
2023-04-22T03:47:56.526Z,7.93
2023-04-22T03:50:25.094Z,7.89
2023-04-22T03:52:53.745Z,7.85
2023-04-22T03:55:21.786Z,7.84
2023-04-22T03:57:50.058Z,7.78
2023-04-22T04:00:18.094Z,7.74
2023-04-22T04:02:46.190Z,7.75
2023-04-22T04:05:14.334Z,7.75
2023-04-22T04:07:48.082Z,7.77
2023-04-22T04:10:16.267Z,7.78
2023-04-22T04:12:44.068Z,7.78
2023-04-22T04:15:12.121Z,7.79
2023-04-22T04:17:40.532Z,7.77
2023-04-22T04:20:08.940Z,7.76
2023-04-22T04:22:37.716Z,7.71
2023-04-22T04:25:07.000Z,7.69
2023-04-22T04:27:39.723Z,7.67
2023-04-22T04:30:10.305Z,7.64
2023-04-22T04:32:38.387Z,7.60
2023-04-22T04:35:06.854Z,7.58
2023-04-22T04:37:35.021Z,7.59
2023-04-22T04:40:03.319Z,7.58
2023-04-22T04:42:33.624Z,7.57
2023-04-22T04:45:01.411Z,7.60
2023-04-22T04:47:42.350Z,7.63
2023-04-22T04:50:13.957Z,7.67
2023-04-22T04:52:42.042Z,7.70
2023-04-22T04:55:09.870Z,7.73
2023-04-22T04:57:38.622Z,7.75
2023-04-22T05:00:08.124Z,7.77
2023-04-22T05:02:36.618Z,7.81
2023-04-22T05:05:04.843Z,7.82
2023-04-22T05:07:33.319Z,7.79
2023-04-22T05:10:01.276Z,7.78
2023-04-22T05:12:29.101Z,7.73
2023-04-22T05:14:57.153Z,7.67
2023-04-22T05:17:25.368Z,7.61
2023-04-22T05:19:53.148Z,7.55
2023-04-22T05:22:24.316Z,7.51
2023-04-22T05:24:52.261Z,7.49
2023-04-22T05:27:20.410Z,7.47
2023-04-22T05:29:49.113Z,7.44
2023-04-22T05:32:17.665Z,7.45
2023-04-22T05:34:45.574Z,7.46
2023-04-22T05:37:13.471Z,7.47
2023-04-22T05:39:41.498Z,7.51
2023-04-22T05:42:09.677Z,7.50
2023-04-22T05:44:39.203Z,7.48
2023-04-22T05:47:07.138Z,7.49
2023-04-22T05:49:35.354Z,7.52
2023-04-22T05:52:03.738Z,7.50
2023-04-22T05:54:32.843Z,7.54
2023-04-22T05:57:02.543Z,7.60
2023-04-22T05:59:31.197Z,7.61
2023-04-22T06:01:59.549Z,7.64
2023-04-22T06:04:27.657Z,7.68
2023-04-22T06:06:56.274Z,7.71
2023-04-22T06:09:24.124Z,7.73
2023-04-22T06:11:51.912Z,7.64
2023-04-22T06:14:19.723Z,7.58
2023-04-22T06:16:47.857Z,7.57
2023-04-22T06:19:16.156Z,7.56
2023-04-22T06:21:44.261Z,7.54
2023-04-22T06:24:12.055Z,7.53
2023-04-22T06:26:39.938Z,7.55
2023-04-22T06:29:07.722Z,7.54
2023-04-22T06:31:36.591Z,7.58
2023-04-22T06:34:05.447Z,7.59
2023-04-22T06:36:37.476Z,7.59
2023-04-22T06:39:10.091Z,7.67
2023-04-22T06:41:40.147Z,7.71
2023-04-22T06:44:09.369Z,7.78
2023-04-22T06:46:39.445Z,7.86
2023-04-22T06:49:07.928Z,7.95
2023-04-22T06:51:35.747Z,8.01
2023-04-22T06:54:21.342Z,8.11
2023-04-22T06:56:49.485Z,8.25
2023-04-22T06:59:17.457Z,8.32
2023-04-22T07:04:31.999Z,8.41
2023-04-22T07:07:00.021Z,8.54
2023-04-22T07:09:31.364Z,8.66
2023-04-22T07:11:59.504Z,8.79
2023-04-22T07:14:27.763Z,8.87
2023-04-22T07:16:55.893Z,8.99
2023-04-22T07:19:23.902Z,9.10
2023-04-22T07:21:52.132Z,9.16
2023-04-22T07:24:20.093Z,9.07
2023-04-22T07:26:48.575Z,9.00
2023-04-22T07:29:16.372Z,8.99
2023-04-22T07:31:44.722Z,9.05
2023-04-22T07:34:12.561Z,9.13
2023-04-22T07:36:43.369Z,9.19
2023-04-22T07:39:11.792Z,9.29
2023-04-22T07:41:39.611Z,9.44
2023-04-22T07:44:07.422Z,9.62
2023-04-22T07:46:35.322Z,9.82
2023-04-22T07:49:03.115Z,10.09
2023-04-22T07:51:34.357Z,10.49
2023-04-22T07:54:16.328Z,11.01
2023-04-22T07:56:44.147Z,11.47
2023-04-22T07:59:11.970Z,11.87
2023-04-22T08:01:40.117Z,12.07
2023-04-22T08:04:08.590Z,12.56
2023-04-22T08:06:36.745Z,13.01
2023-04-22T08:09:04.827Z,13.34
2023-04-22T08:11:35.522Z,13.53
2023-04-22T08:14:03.620Z,13.66
2023-04-22T08:16:31.416Z,13.74
2023-04-22T08:18:59.336Z,13.70
2023-04-22T08:21:28.628Z,13.54
2023-04-22T08:24:00.478Z,13.35
2023-04-22T08:26:28.284Z,13.35
2023-04-22T08:28:56.105Z,13.46
2023-04-22T08:31:23.853Z,13.60
2023-04-22T08:33:51.859Z,13.78
2023-04-22T08:36:22.957Z,13.97
2023-04-22T08:38:51.803Z,14.12
2023-04-22T08:41:21.219Z,14.12
2023-04-22T08:43:49.396Z,14.08
2023-04-22T08:46:18.477Z,14.12
2023-04-22T08:48:51.290Z,14.13
2023-04-22T08:51:19.363Z,14.17
2023-04-22T08:53:47.606Z,14.05
2023-04-22T08:56:15.753Z,13.93
2023-04-22T08:58:43.711Z,13.93
2023-04-22T09:01:12.920Z,13.85
2023-04-22T09:03:45.472Z,13.76
2023-04-22T09:06:17.201Z,13.72
2023-04-22T09:08:46.374Z,13.74
2023-04-22T09:11:14.585Z,13.76
2023-04-22T09:13:47.004Z,13.80
2023-04-22T09:16:15.339Z,13.85
2023-04-22T09:18:45.930Z,13.89
2023-04-22T09:21:16.716Z,14.13
2023-04-22T09:23:51.751Z,14.29
2023-04-22T09:26:22.442Z,14.43
2023-04-22T09:28:51.461Z,14.56
2023-04-22T09:31:21.174Z,14.52
2023-04-22T09:33:50.364Z,14.52
2023-04-22T09:36:22.178Z,14.58
2023-04-22T09:38:54.171Z,14.56
2023-04-22T09:41:29.296Z,14.60
2023-04-22T09:44:09.109Z,14.66
2023-04-22T09:46:37.209Z,14.71
2023-04-22T09:49:05.151Z,14.72
2023-04-22T09:51:34.709Z,14.74
2023-04-22T09:54:10.608Z,14.78
2023-04-22T09:56:48.859Z,14.86
2023-04-22T09:59:24.838Z,14.94
2023-04-22T10:01:56.767Z,15.05
2023-04-22T10:04:26.076Z,15.14
2023-04-22T10:06:57.074Z,15.19
2023-04-22T10:09:26.315Z,15.29
2023-04-22T10:11:55.598Z,15.49
2023-04-22T10:14:24.452Z,15.73
2023-04-22T10:17:04.387Z,15.86
2023-04-22T10:19:33.582Z,15.81
2023-04-22T10:22:03.940Z,15.67
2023-04-22T10:24:37.978Z,15.68
2023-04-22T10:27:06.888Z,15.72
2023-04-22T10:29:45.952Z,15.45
2023-04-22T10:32:20.083Z,15.29
2023-04-22T10:34:48.921Z,14.84
2023-04-22T10:37:23.518Z,14.61
2023-04-22T10:40:16.658Z,14.76
2023-04-22T10:42:50.622Z,15.09
2023-04-22T10:45:19.071Z,15.42
2023-04-22T10:48:05.471Z,15.64
2023-04-22T10:50:33.920Z,15.89
2023-04-22T10:53:22.116Z,15.98
2023-04-22T10:55:54.783Z,15.78
2023-04-22T10:58:37.528Z,15.67
2023-04-22T11:04:22.687Z,15.96
2023-04-22T11:07:14.632Z,16.14
2023-04-22T11:10:02.400Z,16.34
2023-04-22T11:12:39.681Z,16.46
2023-04-22T11:15:07.792Z,16.63
2023-04-22T11:17:36.385Z,16.49
2023-04-22T11:20:05.408Z,16.24
2023-04-22T11:22:43.716Z,15.98
2023-04-22T11:25:21.221Z,15.71
2023-04-22T11:27:50.812Z,15.60
2023-04-22T11:30:32.643Z,15.46
2023-04-22T11:33:01.048Z,15.43
2023-04-22T11:35:34.798Z,15.37
2023-04-22T11:38:04.220Z,15.36
2023-04-22T11:40:35.853Z,15.45
2023-04-22T11:43:07.874Z,15.57
2023-04-22T11:46:01.107Z,15.62
2023-04-22T11:48:29.028Z,15.57
2023-04-22T11:51:11.218Z,15.72
2023-04-22T11:53:41.330Z,15.95
2023-04-22T11:56:09.584Z,16.11
2023-04-22T11:58:39.513Z,16.26
2023-04-22T12:01:12.428Z,16.54
2023-04-22T12:03:44.961Z,16.77
2023-04-22T12:06:12.934Z,16.98
2023-04-22T12:08:45.466Z,17.06
2023-04-22T12:11:14.077Z,17.06
2023-04-22T12:13:43.404Z,17.19
2023-04-22T12:16:15.808Z,17.24
2023-04-22T12:18:50.076Z,17.32
2023-04-22T12:21:22.460Z,17.37
2023-04-22T12:23:59.365Z,17.43
2023-04-22T12:26:28.240Z,17.62
2023-04-22T12:28:58.126Z,17.78
2023-04-22T12:31:26.979Z,17.87
2023-04-22T12:33:57.620Z,17.81
2023-04-22T12:36:26.264Z,17.64
2023-04-22T12:38:54.639Z,17.55
2023-04-22T12:41:23.771Z,17.54
2023-04-22T12:43:52.889Z,17.48
2023-04-22T12:46:22.614Z,17.49
2023-04-22T12:48:50.673Z,17.53
2023-04-22T12:51:22.538Z,17.73
2023-04-22T12:53:50.298Z,17.76
2023-04-22T12:56:18.393Z,17.69
2023-04-22T12:58:47.514Z,17.59
2023-04-22T13:01:18.157Z,17.47
2023-04-22T13:03:53.922Z,17.57
2023-04-22T13:06:31.755Z,17.81
2023-04-22T13:08:59.601Z,18.07
2023-04-22T13:11:47.908Z,18.08
2023-04-22T13:14:19.060Z,17.86
2023-04-22T13:16:51.996Z,17.43
2023-04-22T13:19:54.431Z,17.08
2023-04-22T13:22:44.822Z,16.93
2023-04-22T13:25:12.894Z,17.01
2023-04-22T13:27:45.836Z,17.19
2023-04-22T13:30:13.926Z,17.12
2023-04-22T13:32:41.854Z,17.32
2023-04-22T13:35:36.766Z,17.38
2023-04-22T13:38:16.286Z,17.39
2023-04-22T13:40:44.312Z,17.63
2023-04-22T13:43:12.158Z,17.87
2023-04-22T13:45:45.657Z,18.15
2023-04-22T13:48:20.731Z,18.37
2023-04-22T13:50:49.401Z,18.33
2023-04-22T13:53:17.346Z,18.18
2023-04-22T13:55:49.021Z,18.08
2023-04-22T13:58:16.986Z,18.19
2023-04-22T14:00:45.362Z,18.17
2023-04-22T14:03:13.956Z,18.01
2023-04-22T14:05:42.207Z,17.96
2023-04-22T14:08:10.092Z,17.86
2023-04-22T14:10:42.562Z,17.83
2023-04-22T14:13:31.968Z,17.75
2023-04-22T14:16:00.050Z,17.87
2023-04-22T14:18:27.838Z,17.93
2023-04-22T14:21:06.373Z,17.89
2023-04-22T14:23:49.575Z,17.80
2023-04-22T14:26:34.237Z,17.67
2023-04-22T14:29:05.369Z,17.50
2023-04-22T14:31:50.123Z,17.50
2023-04-22T14:34:41.404Z,17.49
2023-04-22T14:37:39.882Z,17.42
2023-04-22T14:40:20.469Z,17.33
2023-04-22T14:42:52.051Z,17.19
2023-04-22T14:45:22.329Z,17.00
2023-04-22T14:47:50.342Z,16.84
2023-04-22T14:50:50.779Z,16.66
2023-04-22T14:54:13.768Z,16.44
2023-04-22T14:57:30.646Z,16.26
2023-04-22T15:00:36.668Z,16.05
2023-04-22T15:03:08.867Z,15.89
2023-04-22T15:06:00.159Z,15.73
2023-04-22T15:08:57.234Z,15.72
2023-04-22T15:11:25.187Z,15.75
2023-04-22T15:13:56.799Z,15.74
2023-04-22T15:16:29.245Z,15.77
2023-04-22T15:19:02.770Z,15.83
2023-04-22T15:21:51.084Z,15.73
2023-04-22T15:24:23.146Z,15.74
2023-04-22T15:26:53.583Z,15.80
2023-04-22T15:29:58.233Z,15.87
2023-04-22T15:32:24.765Z,15.89
2023-04-22T15:38:47.953Z,15.93
2023-04-22T15:41:47.765Z,15.86
2023-04-22T15:44:31.653Z,15.76
2023-04-22T15:50:31.734Z,15.89
2023-04-22T16:00:47.100Z,15.65
2023-04-22T16:03:47.378Z,15.61
2023-04-22T16:10:29.687Z,15.53
2023-04-22T16:16:40.474Z,15.51
2023-04-22T16:19:29.393Z,15.51
2023-04-22T16:22:34.636Z,15.48
2023-04-22T16:33:02.881Z,15.37
2023-04-22T16:36:12.259Z,15.31
2023-04-22T16:39:09.466Z,15.30
2023-04-22T16:46:35.589Z,15.39
2023-04-22T16:49:37.735Z,15.56
2023-04-22T16:53:07.777Z,15.66
2023-04-22T16:55:39.703Z,15.69
2023-04-22T16:58:54.478Z,15.69
2023-04-22T17:02:05.967Z,15.71
2023-04-22T17:05:14.608Z,15.71
2023-04-22T17:08:41.334Z,15.70
2023-04-22T17:13:24.484Z,15.82
2023-04-22T17:16:09.058Z,16.03
2023-04-22T17:19:19.435Z,16.03
2023-04-22T17:22:03.880Z,15.95
2023-04-22T17:25:15.915Z,15.99
2023-04-22T17:28:24.391Z,16.02
2023-04-22T17:31:25.658Z,16.07
2023-04-22T17:34:27.594Z,16.01
2023-04-22T17:37:18.555Z,15.87
2023-04-22T17:40:58.984Z,15.81
2023-04-22T17:44:31.132Z,15.76
2023-04-22T17:47:39.664Z,15.73
2023-04-22T17:50:49.614Z,15.78
2023-04-22T17:53:57.100Z,15.84
2023-04-22T17:56:54.629Z,15.79
2023-04-22T18:00:18.245Z,15.69
2023-04-22T18:03:09.747Z,15.51
2023-04-22T18:10:04.084Z,15.08
2023-04-22T18:13:18.382Z,14.88
2023-04-22T18:16:26.873Z,14.64
2023-04-22T18:19:35.719Z,14.40
2023-04-22T18:22:44.609Z,14.19
2023-04-22T18:26:07.433Z,14.02
2023-04-22T18:29:21.730Z,13.83
2023-04-22T18:36:19.551Z,13.44
2023-04-22T18:39:08.197Z,13.27
2023-04-22T18:50:22.099Z,12.81
2023-04-22T18:53:10.495Z,12.71
2023-04-22T18:56:08.092Z,12.65
2023-04-22T18:59:06.937Z,12.60
2023-04-22T19:02:15.601Z,12.59
2023-04-22T19:05:17.042Z,12.54
2023-04-22T19:08:10.809Z,12.47
2023-04-22T19:11:13.023Z,12.43
2023-04-22T19:15:12.972Z,12.36
2023-04-22T19:17:42.985Z,12.30
2023-04-22T19:21:29.185Z,12.24
2023-04-22T19:24:14.282Z,12.18
2023-04-22T19:30:49.407Z,12.11
2023-04-22T19:34:50.605Z,12.07
2023-04-22T19:37:49.055Z,12.00
2023-04-22T19:40:57.334Z,11.95
2023-04-22T19:44:06.362Z,11.89
2023-04-22T19:47:14.768Z,11.83
2023-04-22T19:50:23.686Z,11.79
2023-04-22T19:53:32.407Z,11.76
2023-04-22T19:56:30.184Z,11.71
2023-04-22T19:59:33.151Z,11.69
2023-04-22T20:02:42.372Z,11.69
2023-04-22T20:05:51.413Z,11.70
2023-04-22T20:08:42.762Z,11.71
2023-04-22T20:11:42.591Z,11.73
2023-04-22T20:14:46.129Z,11.74
2023-04-22T20:17:55.944Z,11.75
2023-04-22T20:21:07.694Z,11.74
2023-04-22T20:24:16.240Z,11.73
2023-04-22T20:30:53.267Z,11.67
2023-04-22T20:33:43.123Z,11.66
2023-04-22T20:36:41.531Z,11.65
2023-04-22T20:39:50.075Z,11.63
2023-04-22T20:43:01.306Z,11.59
2023-04-22T20:46:09.931Z,11.59
2023-04-22T20:49:18.333Z,11.57
2023-04-22T20:52:21.254Z,11.55
2023-04-22T20:55:29.923Z,11.52
2023-04-22T20:58:32.144Z,11.50
2023-04-22T21:01:29.757Z,11.47
2023-04-22T21:04:38.902Z,11.44
2023-04-22T21:07:47.650Z,11.40
2023-04-22T21:10:56.166Z,11.38
2023-04-22T21:13:54.557Z,11.36
2023-04-22T21:16:57.116Z,11.35
2023-04-22T21:20:08.442Z,11.33
2023-04-22T21:23:17.386Z,11.30
2023-04-22T21:26:18.998Z,11.30
2023-04-22T21:29:20.218Z,11.28
2023-04-22T21:32:27.571Z,11.26
2023-04-22T21:35:36.039Z,11.25
2023-04-22T21:38:44.284Z,11.24
2023-04-22T21:41:52.890Z,11.25
2023-04-22T21:44:51.187Z,11.24
2023-04-22T21:47:59.817Z,11.22
2023-04-22T21:51:11.218Z,11.20
2023-04-22T21:54:09.607Z,11.16
2023-04-22T21:57:17.953Z,11.14
2023-04-22T22:00:26.338Z,11.09
2023-04-22T22:03:17.522Z,11.03
2023-04-22T22:06:18.556Z,10.99
2023-04-22T22:09:18.295Z,10.95
2023-04-22T22:12:20.897Z,10.91
2023-04-22T22:14:57.976Z,10.86
2023-04-22T22:18:05.112Z,10.84
2023-04-22T22:21:13.409Z,10.81
2023-04-22T22:24:11.042Z,10.78
2023-04-22T22:27:19.364Z,10.76
2023-04-22T22:30:21.034Z,10.75
2023-04-22T22:33:29.447Z,10.75
2023-04-22T22:36:10.671Z,10.74
2023-04-22T22:39:19.076Z,10.72
2023-04-22T22:42:18.803Z,10.70
2023-04-22T22:45:27.688Z,10.69
2023-04-22T22:48:18.689Z,10.67
2023-04-22T22:51:19.568Z,10.65
2023-04-22T22:54:10.700Z,10.63
2023-04-22T22:57:09.100Z,10.63
2023-04-22T23:00:17.471Z,10.63
2023-04-22T23:03:09.064Z,10.62
2023-04-22T23:06:11.912Z,10.59
2023-04-22T23:09:18.947Z,10.57
2023-04-22T23:12:27.309Z,10.56
2023-04-22T23:15:15.726Z,10.57
2023-04-22T23:18:24.060Z,10.57
2023-04-22T23:21:27.403Z,10.56
2023-04-22T23:24:34.920Z,10.54
2023-04-22T23:27:43.709Z,10.52
2023-04-22T23:30:52.140Z,10.48
2023-04-22T23:34:00.664Z,10.41
2023-04-22T23:37:09.031Z,10.34
2023-04-22T23:40:10.295Z,10.26
2023-04-22T23:43:08.592Z,10.21
2023-04-22T23:46:18.452Z,10.18
2023-04-22T23:49:08.806Z,10.18
2023-04-22T23:52:17.268Z,10.17
2023-04-22T23:55:25.698Z,10.18
2023-04-22T23:58:34.073Z,10.18
